Time;durP1;ratioP1;P1;durP2;ratioP2;P2;SDS_P1;SDS_P2;PMS_P1;PMS_P2;Temp;Humidity;BMP_temperature;BMP_pressure;BME280_temperature;BME280_humidity;BME280_pressure;Samples;Min_cycle;Max_cycle;Signal;HPM_P1;HPM_P2
2022/01/08 00:01:55;;;;;;;19.23;11.25;;;;;;;0.41;nan;100966.03;10416349;28;20569;-81
2022/01/08 00:06:57;;;;;;;18.55;10.98;;;;;;;0.41;nan;100955.88;10375376;28;20050;-80
2022/01/08 00:11:58;;;;;;;18.95;10.75;;;;;;;0.40;nan;100959.19;10414947;28;20057;-80
2022/01/08 00:17:00;;;;;;;22.95;11.52;;;;;;;0.37;nan;100969.13;10413987;28;20049;-80
2022/01/08 00:22:02;;;;;;;26.20;11.98;;;;;;;0.43;nan;100964.44;10434435;28;20049;-81
2022/01/08 00:27:04;;;;;;;20.38;12.15;;;;;;;0.34;nan;100966.34;10397426;28;20073;-80
2022/01/08 00:32:06;;;;;;;19.67;12.60;;;;;;;0.31;nan;100970.47;10415428;28;20045;-80
2022/01/08 00:37:08;;;;;;;20.60;12.20;;;;;;;0.25;nan;100959.91;10381390;28;20048;-80
2022/01/08 00:42:10;;;;;;;21.25;12.80;;;;;;;0.23;nan;100958.91;10415159;28;20069;-80
2022/01/08 00:47:12;;;;;;;19.27;12.07;;;;;;;0.09;nan;100952.03;10422079;28;20444;-80
2022/01/08 00:52:13;;;;;;;21.70;12.60;;;;;;;0.10;nan;100953.78;10438116;28;20056;-80
2022/01/08 00:57:16;;;;;;;29.30;14.00;;;;;;;0.03;nan;100956.69;10395978;28;20045;-80
2022/01/08 01:02:17;;;;;;;21.50;13.15;;;;;;;0.07;nan;100968.75;10434866;28;20050;-86
2022/01/08 01:07:19;;;;;;;28.45;13.40;;;;;;;0.03;nan;100961.75;10387844;28;20041;-86
2022/01/08 01:12:21;;;;;;;27.52;15.13;;;;;;;0.08;nan;100970.53;10422121;28;20038;-86
2022/01/08 01:17:40;;;;;;;27.30;13.77;;;;;;;0.01;nan;100964.16;10417659;28;20036;-85
2022/01/08 01:28:22;;;;;;;;;;;;;;;-0.12;nan;100977.63;10417827;28;20103;-86
2022/01/08 01:49:12;;;;;;;28.08;13.38;;;;;;;-0.28;nan;100985.78;10398164;28;20048;-85
2022/01/08 01:54:14;;;;;;;28.33;16.08;;;;;;;-0.26;nan;100986.78;10398381;28;20160;-86
2022/01/08 01:59:16;;;;;;;36.88;17.65;;;;;;;-0.18;nan;100977.19;10382680;28;20623;-87
2022/01/08 02:04:18;;;;;;;33.72;17.83;;;;;;;-0.18;nan;100977.19;10398727;28;20049;-86
2022/01/08 02:09:20;;;;;;;32.88;16.63;;;;;;;-0.12;nan;100974.19;10431110;28;20037;-87
2022/01/08 02:14:22;;;;;;;37.35;18.38;;;;;;;-0.19;nan;100976.31;10414129;28;20068;-87
2022/01/08 02:19:27;;;;;;;38.90;19.88;;;;;;;-0.12;nan;100962.44;10410961;28;20045;-87
2022/01/08 02:24:29;;;;;;;36.97;19.98;;;;;;;-0.12;nan;100962.44;10414353;28;20067;-86
2022/01/08 02:29:31;;;;;;;40.50;19.05;;;;;;;-0.01;nan;100966.59;10413305;28;20029;-87
2022/01/08 02:34:33;;;;;;;40.40;20.52;;;;;;;-0.20;nan;100958.47;10395969;28;20107;-87
2022/01/08 02:39:41;;;;;;;37.58;19.67;;;;;;;-0.18;nan;100949.31;10396810;28;20149;-87
2022/01/08 02:44:47;;;;;;;37.15;18.33;;;;;;;-0.05;nan;100962.09;10378945;28;20107;-87
2022/01/08 02:49:53;;;;;;;26.88;15.77;;;;;;;-0.14;nan;100963.97;10421478;28;20111;-86
2022/01/08 02:54:55;;;;;;;28.20;15.95;;;;;;;-0.22;nan;100965.94;10398226;28;20053;-86
2022/01/08 02:59:57;;;;;;;28.88;16.42;;;;;;;-0.13;nan;100954.72;10391551;28;20120;-85
2022/01/08 03:04:58;;;;;;;33.42;18.25;;;;;;;-0.25;nan;100959.78;10428634;28;20050;-86
2022/01/08 03:10:00;;;;;;;32.08;18.38;;;;;;;-0.36;nan;100967.53;10428024;28;20072;-85
2022/01/08 03:15:02;;;;;;;33.95;17.40;;;;;;;-0.44;nan;100968.63;10436765;28;20143;-85
2022/01/08 03:20:10;;;;;;;35.60;21.08;;;;;;;-0.49;nan;100962.38;10437035;28;20037;-86
2022/01/08 03:25:13;;;;;;;39.53;18.70;;;;;;;-0.41;nan;100965.44;10405158;28;20565;-85
2022/01/08 03:30:14;;;;;;;36.55;17.75;;;;;;;-0.41;nan;100978.97;10399416;28;20117;-86
2022/01/08 03:35:16;;;;;;;33.10;18.23;;;;;;;-0.39;nan;100982.50;10375429;28;20081;-85
2022/01/08 03:40:19;;;;;;;36.78;20.35;;;;;;;-0.21;nan;100987.09;10369237;28;20051;-85
2022/01/08 03:45:23;;;;;;;42.80;23.77;;;;;;;-0.03;nan;100990.91;10427065;28;20084;-86
2022/01/08 03:50:25;;;;;;;44.67;20.50;;;;;;;0.12;nan;100993.66;10425552;28;20038;-86
2022/01/08 03:55:27;;;;;;;48.88;21.25;;;;;;;0.22;nan;100990.09;10425986;28;20045;-84
2022/01/08 04:00:29;;;;;;;41.08;20.80;;;;;;;0.36;nan;100993.59;10415364;28;20065;-86
2022/01/08 04:05:31;;;;;;;34.28;18.70;;;;;;;0.54;nan;100996.50;10410108;28;20048;-85
2022/01/08 04:10:32;;;;;;;33.45;19.45;;;;;;;0.59;nan;100992.59;10389745;28;20129;-85
2022/01/08 04:15:37;;;;;;;39.85;18.40;;;;;;;0.71;nan;101002.69;10432863;28;20712;-86
2022/01/08 04:21:09;;;;;;;36.92;19.02;;;;;;;0.70;nan;101005.13;10408670;28;20037;-85
2022/01/08 04:26:03;;;;;;;34.08;17.80;;;;;;;0.74;nan;101004.56;10406316;28;20072;-86
2022/01/08 04:31:05;;;;;;;35.50;17.73;;;;;;;0.65;nan;101014.06;10411581;28;20040;-85
2022/01/08 04:36:07;;;;;;;32.60;19.08;;;;;;;0.59;nan;101012.88;10399252;28;20373;-85
2022/01/08 04:41:09;;;;;;;30.33;16.27;;;;;;;0.54;nan;101021.84;10390205;28;20427;-84
2022/01/08 04:46:11;;;;;;;33.10;16.73;;;;;;;0.55;nan;101016.00;10432266;28;20065;-85
2022/01/08 04:51:13;;;;;;;30.48;16.05;;;;;;;0.52;nan;101015.78;10371532;28;20496;-86
2022/01/08 04:56:15;;;;;;;46.63;21.08;;;;;;;0.45;nan;101018.69;10406388;28;20042;-85
2022/01/08 05:01:18;;;;;;;37.15;19.15;;;;;;;0.59;nan;101023.03;10425404;28;20051;-85
2022/01/08 05:06:19;;;;;;;38.45;18.83;;;;;;;0.62;nan;101025.78;10393515;28;20045;-85
2022/01/08 05:11:21;;;;;;;36.28;18.77;;;;;;;0.55;nan;101020.19;10424945;28;20041;-85
2022/01/08 05:16:26;;;;;;;38.72;16.65;;;;;;;0.58;nan;101021.28;10396316;28;20048;-85
2022/01/08 05:21:32;;;;;;;35.88;18.85;;;;;;;0.47;nan;101022.22;10395425;28;20057;-86
2022/01/08 05:26:34;;;;;;;36.85;19.25;;;;;;;0.46;nan;101025.50;10397656;28;20068;-85
2022/01/08 05:31:38;;;;;;;33.00;17.10;;;;;;;0.43;nan;101023.66;10415158;28;20049;-86
2022/01/08 05:36:40;;;;;;;42.25;16.23;;;;;;;0.40;nan;101025.09;10398452;28;20065;-86
2022/01/08 05:41:42;;;;;;;33.88;15.35;;;;;;;0.34;nan;101029.72;10439475;28;20038;-86
2022/01/08 05:46:46;;;;;;;33.53;15.68;;;;;;;0.23;nan;101034.94;10432645;28;20049;-85
2022/01/08 05:51:48;;;;;;;33.35;16.38;;;;;;;0.23;nan;101042.53;10432262;28;20059;-86
2022/01/08 05:56:51;;;;;;;32.70;15.55;;;;;;;0.26;nan;101037.66;10383582;28;20049;-85
2022/01/08 06:01:54;;;;;;;36.28;18.30;;;;;;;-0.03;nan;101049.19;10415199;28;20048;-85
2022/01/08 06:06:56;;;;;;;36.00;19.50;;;;;;;-0.21;nan;101052.94;10385614;28;20042;-80
2022/01/08 06:11:57;;;;;;;39.78;17.83;;;;;;;-0.25;nan;101056.00;10386365;28;20135;-80
2022/01/08 06:16:59;;;;;;;35.78;17.85;;;;;;;-0.36;nan;101058.66;10386180;28;20519;-80
2022/01/08 06:22:01;;;;;;;36.30;19.55;;;;;;;-0.40;nan;101064.25;10402778;28;20041;-80
2022/01/08 06:27:03;;;;;;;33.72;17.08;;;;;;;-0.45;nan;101075.72;10385982;28;20073;-80
2022/01/08 06:32:05;;;;;;;29.80;18.13;;;;;;;-0.48;nan;101080.53;10402836;28;20051;-80
2022/01/08 06:37:07;;;;;;;41.58;21.80;;;;;;;-0.47;nan;101082.31;10401599;28;20046;-80
2022/01/08 06:42:08;;;;;;;34.58;17.25;;;;;;;-0.49;nan;101086.41;10417744;28;20055;-80
2022/01/08 06:47:10;;;;;;;48.95;23.02;;;;;;;-0.63;nan;101087.03;10417872;28;20447;-80
2022/01/08 06:52:14;;;;;;;38.17;18.02;;;;;;;-0.51;nan;101087.94;10434255;28;20053;-80
2022/01/08 06:57:18;;;;;;;47.15;21.08;;;;;;;-0.50;nan;101092.22;10417703;28;20037;-79
2022/01/08 07:02:20;;;;;;;49.15;23.05;;;;;;;-0.56;nan;101084.19;10400912;28;20052;-80
2022/01/08 07:07:22;;;;;;;56.25;23.70;;;;;;;-0.48;nan;101083.06;10400162;28;20481;-80
2022/01/08 07:12:24;;;;;;;57.22;26.58;;;;;;;-0.46;nan;101085.72;10431106;28;20053;-84
2022/01/08 07:17:26;;;;;;;65.53;28.27;;;;;;;-0.43;nan;101086.84;10383777;28;20044;-85
2022/01/08 07:22:29;;;;;;;46.53;22.60;;;;;;;-0.37;nan;101089.81;10457676;28;20041;-84
2022/01/08 07:27:32;;;;;;;68.68;29.27;;;;;;;-0.46;nan;101096.72;10434407;28;20400;-84
2022/01/08 07:32:45;;;;;;;62.53;27.13;;;;;;;-0.44;nan;101104.41;10420218;28;20032;-84
2022/01/08 07:37:49;;;;;;;59.85;32.55;;;;;;;-0.45;nan;101101.03;10395943;28;20041;-85
2022/01/08 07:42:51;;;;;;;61.35;29.52;;;;;;;-0.37;nan;101094.88;10434711;28;20041;-84
2022/01/08 07:47:53;;;;;;;57.67;27.13;;;;;;;-0.28;nan;101087.06;10414065;28;20500;-84
2022/01/08 07:52:55;;;;;;;58.83;32.40;;;;;;;-0.20;nan;101100.28;10416150;28;20109;-84
2022/01/08 07:57:56;;;;;;;54.80;29.65;;;;;;;-0.15;nan;101093.91;10394556;28;20068;-85
2022/01/08 08:02:58;;;;;;;60.63;27.20;;;;;;;-0.06;nan;101099.63;10396345;28;20057;-80
2022/01/08 08:08:00;;;;;;;45.03;22.55;;;;;;;0.04;nan;101092.69;10472414;28;20041;-81
2022/01/08 08:13:02;;;;;;;42.80;18.67;;;;;;;0.08;nan;101079.47;10423087;28;20492;-80
2022/01/08 08:18:03;;;;;;;46.85;22.83;;;;;;;0.01;nan;101077.28;10439168;28;20110;-80
2022/01/08 08:23:05;;;;;;;36.08;20.45;;;;;;;0.04;nan;101067.38;10455610;28;20044;-79
2022/01/08 08:28:07;;;;;;;44.10;23.08;;;;;;;-0.05;nan;101070.09;10397787;28;20449;-79
2022/01/08 08:33:10;;;;;;;47.00;23.98;;;;;;;-0.14;nan;101060.22;10398149;28;20049;-79
2022/01/08 08:38:12;;;;;;;59.90;29.90;;;;;;;-0.14;nan;101065.28;10397722;28;20096;-79
2022/01/08 08:43:13;;;;;;;59.30;31.05;;;;;;;-0.14;nan;101071.97;10414079;28;20077;-81
2022/01/08 08:48:16;;;;;;;53.08;28.50;;;;;;;-0.10;nan;101064.72;10397307;28;20038;-80
2022/01/08 08:53:17;;;;;;;53.70;31.10;;;;;;;0.04;nan;101059.78;10397715;28;20160;-80
2022/01/08 08:58:19;;;;;;;47.15;25.30;;;;;;;0.10;nan;101045.00;10397355;28;20046;-80
2022/01/08 09:03:21;;;;;;;51.17;26.73;;;;;;;0.23;nan;101032.41;10415721;28;20132;-80
2022/01/08 09:08:23;;;;;;;60.42;28.90;;;;;;;0.30;nan;101042.19;10405296;28;20041;-80
2022/01/08 09:13:27;;;;;;;51.58;32.55;;;;;;;0.38;nan;101032.56;10423947;28;20049;-80
2022/01/08 09:18:29;;;;;;;47.58;27.27;;;;;;;0.62;nan;101032.50;10423185;28;20052;-81
2022/01/08 09:23:31;;;;;;;48.85;29.67;;;;;;;0.67;nan;101035.34;10411190;28;20518;-81
2022/01/08 09:28:33;;;;;;;43.35;28.88;;;;;;;0.66;nan;101020.91;10445882;28;20129;-82
2022/01/08 09:33:36;;;;;;;40.08;22.98;;;;;;;0.67;nan;101027.75;10443738;28;20195;-82
2022/01/08 09:38:38;;;;;;;40.08;23.85;;;;;;;0.63;nan;101042.72;10427730;28;20107;-83
2022/01/08 09:43:40;;;;;;;51.25;27.75;;;;;;;0.72;nan;101039.06;10405199;28;20132;-83
2022/01/08 09:48:43;;;;;;;47.92;27.50;;;;;;;0.75;nan;101040.16;10436869;28;20044;-83
2022/01/08 09:53:47;;;;;;;48.47;30.77;;;;;;;0.87;nan;101029.97;10385350;28;20063;-83
2022/01/08 09:58:49;;;;;;;37.67;20.13;;;;;;;1.07;nan;101017.75;10401900;28;20061;-85
2022/01/08 10:03:51;;;;;;;34.15;21.83;;;;;;;1.08;nan;101009.34;10396260;28;20132;-84
2022/01/08 10:08:53;;;;;;;39.03;23.23;;;;;;;1.07;nan;100982.22;10399214;28;20041;-85
2022/01/08 10:14:07;;;;;;;51.85;21.65;;;;;;;1.08;nan;100969.63;10402145;28;20041;-84
2022/01/08 10:19:25;;;;;;;34.53;17.75;;;;;;;1.24;nan;100968.94;10392306;28;20048;-85
2022/01/08 10:24:29;;;;;;;49.28;26.35;;;;;;;1.20;nan;100944.16;10397810;28;20141;-85
2022/01/08 10:29:31;;;;;;;33.38;16.92;;;;;;;1.26;nan;100942.00;10414100;28;20044;-86
2022/01/08 10:34:36;;;;;;;39.67;21.83;;;;;;;1.27;nan;100931.09;10415935;28;20489;-86
2022/01/08 10:39:39;;;;;;;38.13;17.40;;;;;;;1.43;nan;100915.16;10403094;28;20040;-85
2022/01/08 10:44:43;;;;;;;36.35;18.73;;;;;;;1.43;nan;100899.06;10430222;28;20044;-85
2022/01/08 10:50:07;;;;;;;49.70;26.90;;;;;;;1.43;nan;100876.22;10421517;28;20519;-85
2022/01/08 10:55:09;;;;;;;41.60;19.65;;;;;;;1.48;nan;100872.28;10427674;28;20064;-85
2022/01/08 11:00:13;;;;;;;46.63;24.20;;;;;;;1.62;nan;100873.16;10414445;28;20404;-85
2022/01/08 11:05:15;;;;;;;56.05;30.02;;;;;;;1.53;nan;100852.25;10408857;28;20554;-87
2022/01/08 11:10:21;;;;;;;42.15;19.17;;;;;;;1.87;nan;100844.13;10411033;28;20512;-85
2022/01/08 11:15:48;;;;;;;47.50;25.38;;;;;;;1.83;nan;100825.28;10412307;28;20096;-85
2022/01/08 11:20:51;;;;;;;39.25;17.98;;;;;;;1.90;nan;100814.72;10427117;28;20506;-86
2022/01/08 11:25:56;;;;;;;44.83;22.95;;;;;;;2.04;nan;100791.78;10394967;28;20049;-84
2022/01/08 11:31:01;;;;;;;51.28;29.35;;;;;;;1.94;nan;100782.72;10412412;28;20099;-85
2022/01/08 11:36:04;;;;;;;45.28;21.08;;;;;;;2.15;nan;100779.72;10395403;28;20499;-85
2022/01/08 11:41:06;;;;;;;49.42;25.45;;;;;;;2.14;nan;100763.56;10393681;28;20052;-87
2022/01/08 11:46:09;;;;;;;44.45;19.17;;;;;;;2.27;nan;100751.59;10409871;28;20057;-86
2022/01/08 11:51:23;;;;;;;39.05;21.83;;;;;;;2.33;nan;100729.03;10408788;28;20048;-86
2022/01/08 11:56:32;;;;;;;45.75;25.55;;;;;;;2.49;nan;100731.66;10407178;28;20096;-86
2022/01/08 12:01:36;;;;;;;35.20;19.42;;;;;;;2.61;nan;100721.25;10394142;28;20469;-87
2022/01/08 12:06:39;;;;;;;39.42;18.00;;;;;;;2.70;nan;100698.03;10425957;28;20041;-87
2022/01/08 12:11:44;;;;;;;32.45;19.15;;;;;;;2.69;nan;100689.50;10411166;28;20513;-86
2022/01/08 12:16:47;;;;;;;27.05;12.82;;;;;;;2.89;nan;100671.00;10412002;28;20131;-86
2022/01/08 12:21:49;;;;;;;27.60;15.63;;;;;;;2.75;nan;100660.97;10422644;28;20051;-85
2022/01/08 12:26:56;;;;;;;29.23;17.90;;;;;;;2.88;nan;100638.72;10411387;28;20412;-84
2022/01/08 12:32:37;;;;;;;25.75;12.77;;;;;;;3.00;nan;100626.66;10427106;28;20119;-86
2022/01/08 12:37:41;;;;;;;26.95;11.68;;;;;;;3.10;nan;100607.63;10406324;28;20037;-85
2022/01/08 12:42:47;;;;;;;29.27;15.13;;;;;;;3.18;nan;100601.28;10424792;28;20049;-85
2022/01/08 12:48:08;;;;;;;22.45;11.70;;;;;;;3.21;nan;100577.63;10417359;28;20505;-86
2022/01/08 12:53:12;;;;;;;19.10;11.07;;;;;;;3.35;nan;100556.28;10425546;28;20059;-84
2022/01/08 12:58:29;;;;;;;21.10;9.13;;;;;;;3.26;nan;100541.44;10418154;28;20045;-84
2022/01/08 13:03:38;;;;;;;17.08;7.95;;;;;;;3.33;nan;100517.13;10391270;28;20056;-84
2022/01/08 13:08:42;;;;;;;19.02;11.13;;;;;;;3.19;nan;100501.19;10388419;28;20451;-84
2022/01/08 13:13:50;;;;;;;18.10;7.55;;;;;;;3.35;nan;100489.22;10426575;28;20042;-84
2022/01/08 13:18:59;;;;;;;20.85;10.43;;;;;;;3.41;nan;100470.00;10404371;28;20041;-84
2022/01/08 13:24:27;;;;;;;17.33;8.77;;;;;;;3.39;nan;100466.50;10388953;28;20512;-84
2022/01/08 13:29:30;;;;;;;18.05;8.15;;;;;;;3.36;nan;100455.28;10386042;28;20056;-85
2022/01/08 13:34:41;;;;;;;19.95;9.90;;;;;;;3.28;nan;100444.75;10409270;28;20050;-85
2022/01/08 13:39:56;;;;;;;15.98;8.13;;;;;;;3.37;nan;100421.38;10409354;28;20184;-83
2022/01/08 13:45:03;;;;;;;17.38;8.82;;;;;;;3.44;nan;100408.13;10402330;28;20128;-85
2022/01/08 13:50:19;;;;;;;14.52;8.20;;;;;;;3.34;nan;100396.66;10383867;28;20049;-86
2022/01/08 13:55:45;;;;;;;12.63;5.78;;;;;;;3.26;nan;100381.03;10400265;28;20065;-83
2022/01/08 14:00:52;;;;;;;11.50;5.38;;;;;;;3.22;nan;100357.91;10394569;28;20051;-85
2022/01/08 14:05:58;;;;;;;15.02;7.60;;;;;;;3.05;nan;100345.25;10379990;28;20694;-86
2022/01/08 14:11:03;;;;;;;15.80;8.52;;;;;;;3.05;nan;100332.53;10431423;28;20072;-85
2022/01/08 14:16:09;;;;;;;14.52;6.07;;;;;;;2.99;nan;100316.97;10381084;28;20071;-84
2022/01/08 14:21:20;;;;;;;7.43;3.63;;;;;;;3.08;nan;100296.16;10414982;28;20123;-84
2022/01/08 14:26:26;;;;;;;9.70;5.15;;;;;;;2.99;nan;100281.34;10415057;28;20116;-83
2022/01/08 14:31:30;;;;;;;7.22;3.58;;;;;;;3.04;nan;100266.28;10414726;28;20401;-86
2022/01/08 14:36:49;;;;;;;10.32;5.80;;;;;;;3.02;nan;100250.94;10396224;28;20518;-84
2022/01/08 14:41:57;;;;;;;8.75;4.07;;;;;;;2.98;nan;100241.41;10409647;28;20092;-85
2022/01/08 14:46:59;;;;;;;7.90;3.08;;;;;;;2.95;nan;100231.09;10377528;28;20501;-84
2022/01/08 14:52:03;;;;;;;7.55;4.30;;;;;;;2.77;nan;100219.28;10413606;28;20488;-84
2022/01/08 14:57:05;;;;;;;12.63;4.30;;;;;;;2.73;nan;100201.25;10395801;28;20048;-83
2022/01/08 15:02:07;;;;;;;8.15;4.25;;;;;;;2.59;nan;100178.59;10377473;28;20072;-86
2022/01/08 15:07:09;;;;;;;8.55;3.15;;;;;;;2.57;nan;100159.00;10410948;28;20145;-86
2022/01/08 15:12:11;;;;;;;6.45;2.63;;;;;;;2.52;nan;100152.00;10379042;28;20045;-84
2022/01/08 15:17:13;;;;;;;10.88;4.65;;;;;;;2.44;nan;100132.97;10395331;28;20128;-83
2022/01/08 15:22:15;;;;;;;6.55;3.10;;;;;;;2.49;nan;100116.28;10405164;28;20080;-85
2022/01/08 15:27:17;;;;;;;4.47;2.55;;;;;;;2.45;nan;100099.13;10404415;28;20055;-85
2022/01/08 15:32:21;;;;;;;12.52;5.70;;;;;;;2.31;nan;100074.75;10403798;28;20049;-84
2022/01/08 15:37:23;;;;;;;5.82;2.85;;;;;;;2.27;nan;100061.03;10409110;28;20041;-85
2022/01/08 15:42:24;;;;;;;9.25;4.18;;;;;;;2.13;nan;100040.06;10426565;28;20121;-87
2022/01/08 15:47:26;;;;;;;9.95;4.15;;;;;;;2.18;nan;100023.38;10379354;28;20049;-85
2022/01/08 15:52:28;;;;;;;7.97;3.17;;;;;;;2.07;nan;99999.13;10381746;28;20443;-85
2022/01/08 15:57:29;;;;;;;5.93;3.00;;;;;;;2.07;nan;99988.97;10394479;28;20049;-85
2022/01/08 16:02:31;;;;;;;5.28;3.50;;;;;;;2.10;nan;99973.88;10378514;28;20563;-88
2022/01/08 16:07:33;;;;;;;5.93;3.92;;;;;;;2.12;nan;99951.06;10411614;28;20053;-86
2022/01/08 16:12:37;;;;;;;7.93;3.80;;;;;;;2.16;nan;99936.03;10410826;28;20078;-89
2022/01/08 16:17:39;;;;;;;14.30;8.38;;;;;;;2.24;nan;99921.09;10395225;28;20045;-85
2022/01/08 16:22:41;;;;;;;13.98;11.60;;;;;;;2.25;nan;99894.03;10394465;28;20108;-86
2022/01/08 16:27:43;;;;;;;8.52;5.22;;;;;;;2.25;nan;99881.31;10410571;28;20037;-86
2022/01/08 16:32:44;;;;;;;11.18;7.47;;;;;;;2.27;nan;99864.47;10377200;28;20061;-85
2022/01/08 16:37:46;;;;;;;13.20;8.85;;;;;;;2.25;nan;99851.69;10377518;28;20046;-87
2022/01/08 16:42:48;;;;;;;14.65;11.02;;;;;;;2.21;nan;99804.94;10395406;28;20065;-86
2022/01/08 16:47:50;;;;;;;16.27;10.20;;;;;;;2.29;nan;99807.81;10411649;28;20049;-86
2022/01/08 16:52:55;;;;;;;15.45;10.27;;;;;;;2.29;nan;99796.75;10410511;28;20033;-87
2022/01/08 16:57:58;;;;;;;14.68;10.48;;;;;;;2.17;nan;99772.59;10393774;28;20423;-86
2022/01/08 17:03:05;;;;;;;17.23;12.00;;;;;;;2.21;nan;99761.72;10393799;28;20054;-86
2022/01/08 17:08:08;;;;;;;15.32;10.63;;;;;;;2.42;nan;99745.59;10378216;28;20057;-87
2022/01/08 17:13:10;;;;;;;15.05;9.90;;;;;;;2.35;nan;99726.72;10394241;28;20139;-85
2022/01/08 17:18:11;;;;;;;13.85;8.63;;;;;;;2.52;nan;99709.59;10393815;28;20072;-86
2022/01/08 17:23:14;;;;;;;12.30;7.30;;;;;;;2.50;nan;99700.16;10410473;28;20140;-85
2022/01/08 17:28:19;;;;;;;10.73;7.35;;;;;;;2.51;nan;99674.78;10416007;28;20038;-88
2022/01/08 17:33:21;;;;;;;18.23;13.93;;;;;;;2.56;nan;99663.94;10418635;28;20132;-86
2022/01/08 17:38:23;;;;;;;17.85;14.63;;;;;;;2.65;nan;99654.09;10401675;28;20456;-88
2022/01/08 17:43:27;;;;;;;13.82;9.25;;;;;;;2.65;nan;99629.56;10405769;28;20049;-90
2022/01/08 17:48:29;;;;;;;13.35;9.57;;;;;;;2.65;nan;99623.59;10375690;28;20057;-86
2022/01/08 17:53:31;;;;;;;15.00;10.70;;;;;;;2.70;nan;99596.69;10439191;28;20079;-88
2022/01/08 17:58:36;;;;;;;15.05;11.32;;;;;;;2.80;nan;99573.28;10412465;28;20107;-89
2022/01/08 18:03:41;;;;;;;17.45;13.05;;;;;;;2.77;nan;99550.31;10401073;28;20049;-86
2022/01/08 18:08:43;;;;;;;12.65;8.32;;;;;;;2.87;nan;99546.41;10413930;28;20033;-90
2022/01/08 18:13:47;;;;;;;14.10;7.85;;;;;;;2.90;nan;99523.63;10442251;28;20060;-89
2022/01/08 18:18:55;;;;;;;10.55;7.75;;;;;;;2.91;nan;99517.69;10425640;28;20045;-88
2022/01/08 18:23:57;;;;;;;12.50;7.05;;;;;;;3.06;nan;99508.84;10432029;28;20500;-87
2022/01/08 18:28:59;;;;;;;9.60;6.75;;;;;;;3.05;nan;99492.72;10398930;28;20033;-88
2022/01/08 18:34:01;;;;;;;10.93;7.13;;;;;;;3.12;nan;99474.31;10432460;28;20547;-84
2022/01/08 18:39:05;;;;;;;9.05;5.75;;;;;;;3.14;nan;99467.59;10398320;28;20496;-85
2022/01/08 18:44:08;;;;;;;8.30;5.82;;;;;;;3.20;nan;99443.16;10399452;28;20073;-85
2022/01/08 18:49:10;;;;;;;7.20;5.45;;;;;;;3.22;nan;99431.34;10399503;28;20047;-86
2022/01/08 18:54:12;;;;;;;7.68;4.97;;;;;;;3.27;nan;99417.06;10401588;28;20504;-87
2022/01/08 18:59:16;;;;;;;7.22;5.32;;;;;;;3.28;nan;99404.38;10404121;28;20045;-89
2022/01/08 19:04:18;;;;;;;7.53;4.97;;;;;;;3.29;nan;99395.09;10383567;28;20084;-86
2022/01/08 19:09:22;;;;;;;7.63;5.63;;;;;;;3.30;nan;99374.75;10384053;28;20556;-87
2022/01/08 19:14:27;;;;;;;7.20;5.40;;;;;;;3.34;nan;99350.25;10415461;28;20135;-85
2022/01/08 19:19:29;;;;;;;6.40;5.15;;;;;;;3.37;nan;99337.63;10416303;28;20120;-87
2022/01/08 19:24:30;;;;;;;5.70;4.45;;;;;;;3.41;nan;99329.25;10411219;28;20485;-87
2022/01/08 19:29:32;;;;;;;7.78;5.13;;;;;;;3.43;nan;99312.34;10428282;28;20072;-87
2022/01/08 19:34:34;;;;;;;7.57;5.10;;;;;;;3.47;nan;99301.41;10411637;28;20049;-85
2022/01/08 19:39:37;;;;;;;8.35;5.72;;;;;;;3.57;nan;99288.97;10379820;28;20131;-89
2022/01/08 19:44:41;;;;;;;9.75;5.95;;;;;;;3.46;nan;99268.28;10411296;28;20045;-87
2022/01/08 19:49:44;;;;;;;12.27;7.20;;;;;;;3.48;nan;99253.94;10411393;28;20037;-87
2022/01/08 19:54:46;;;;;;;11.30;8.18;;;;;;;3.47;nan;99247.97;10428054;28;20405;-88
2022/01/08 19:59:49;;;;;;;11.05;7.35;;;;;;;3.49;nan;99238.69;10427759;28;20045;-86
2022/01/08 20:04:51;;;;;;;12.43;7.20;;;;;;;3.48;nan;99219.13;10389941;28;20400;-90
2022/01/08 20:09:55;;;;;;;9.68;6.28;;;;;;;3.46;nan;99210.56;10396849;28;20130;-88
2022/01/08 20:14:57;;;;;;;12.82;8.90;;;;;;;3.39;nan;99202.75;10428335;28;20041;-86
2022/01/08 20:20:00;;;;;;;8.73;5.38;;;;;;;3.43;nan;99177.41;10380127;28;20045;-88
2022/01/08 20:25:03;;;;;;;9.90;7.13;;;;;;;3.39;nan;99167.09;10406341;28;20055;-86
2022/01/08 20:30:05;;;;;;;12.73;7.30;;;;;;;3.41;nan;99155.28;10410871;28;20049;-88
2022/01/08 20:35:08;;;;;;;15.68;9.25;;;;;;;3.48;nan;99142.75;10397329;28;20056;-88
2022/01/08 20:40:11;;;;;;;11.38;7.35;;;;;;;3.43;nan;99139.22;10397750;28;20049;-89
2022/01/08 20:45:13;;;;;;;11.98;7.95;;;;;;;3.44;nan;99120.59;10382522;28;20132;-87
2022/01/08 20:50:21;;;;;;;13.85;8.93;;;;;;;3.40;nan;99108.59;10413174;28;20046;-87
2022/01/08 20:55:26;;;;;;;12.55;8.32;;;;;;;3.38;nan;99094.97;10383487;28;20049;-88
2022/01/08 21:00:28;;;;;;;12.65;7.70;;;;;;;3.41;nan;99089.09;10381977;28;20041;-90
2022/01/08 21:05:32;;;;;;;8.93;5.70;;;;;;;3.37;nan;99060.16;10405430;28;20494;-91
2022/01/08 21:10:33;;;;;;;14.40;8.73;;;;;;;3.31;nan;99057.47;10438217;28;20157;-91
2022/01/08 21:15:36;;;;;;;12.73;8.20;;;;;;;3.29;nan;99052.31;10388788;28;20208;-90
2022/01/08 21:20:38;;;;;;;11.27;7.43;;;;;;;3.33;nan;99027.78;10439047;28;20041;-90
2022/01/08 21:25:40;;;;;;;11.23;8.10;;;;;;;3.33;nan;99015.06;10438999;28;20052;-88
2022/01/08 21:30:42;;;;;;;12.45;8.00;;;;;;;3.35;nan;99002.41;10400950;28;20052;-90
2022/01/08 21:35:46;;;;;;;10.75;7.22;;;;;;;3.38;nan;98993.16;10437763;28;20195;-91
2022/01/08 21:40:49;;;;;;;10.82;7.47;;;;;;;3.38;nan;98977.88;10417263;28;20037;-89
2022/01/08 21:45:52;;;;;;;12.93;5.90;;;;;;;3.44;nan;98967.84;10406149;28;20144;-89
2022/01/08 21:50:54;;;;;;;11.65;7.28;;;;;;;3.44;nan;98967.84;10397754;28;20113;-89
2022/01/08 21:55:56;;;;;;;12.30;8.45;;;;;;;3.40;nan;98949.91;10422232;28;20056;-88
2022/01/08 22:00:58;;;;;;;13.20;8.38;;;;;;;3.49;nan;98943.34;10408521;28;20052;-90
2022/01/08 22:06:00;;;;;;;12.13;7.68;;;;;;;3.51;nan;98925.53;10406698;28;20511;-91
2022/01/08 22:11:05;;;;;;;12.93;7.78;;;;;;;3.56;nan;98920.56;10409003;28;20091;-90
2022/01/08 22:16:09;;;;;;;11.30;7.25;;;;;;;3.69;nan;98917.44;10406279;28;20538;-89
2022/01/08 22:21:11;;;;;;;10.20;5.75;;;;;;;3.62;nan;98905.41;10406692;28;20397;-91
2022/01/08 22:26:14;;;;;;;9.68;5.90;;;;;;;3.65;nan;98897.84;10426607;28;20488;-87
2022/01/08 22:31:16;;;;;;;11.95;6.50;;;;;;;3.68;nan;98908.09;10399586;28;20041;-89
2022/01/08 22:36:19;;;;;;;13.48;7.43;;;;;;;3.62;nan;98885.03;10399183;28;20143;-87
2022/01/08 22:41:23;;;;;;;9.75;6.70;;;;;;;3.65;nan;98874.91;10398347;28;20081;-89
2022/01/08 22:46:26;;;;;;;9.32;6.35;;;;;;;3.70;nan;98868.22;10432856;28;20049;-88
2022/01/08 22:51:27;;;;;;;8.55;5.75;;;;;;;3.65;nan;98855.41;10440133;28;20419;-89
2022/01/08 22:56:30;;;;;;;10.70;6.70;;;;;;;3.70;nan;98852.94;10379989;28;20064;-87
2022/01/08 23:01:34;;;;;;;9.80;5.22;;;;;;;3.77;nan;98843.75;10396559;28;20041;-88
2022/01/08 23:06:39;;;;;;;10.85;6.50;;;;;;;3.70;nan;98832.56;10384148;28;20048;-88
2022/01/08 23:11:41;;;;;;;10.15;6.47;;;;;;;3.71;nan;98828.34;10407361;28;20045;-86
2022/01/08 23:16:43;;;;;;;10.38;4.82;;;;;;;3.81;nan;98831.13;10412522;28;20076;-86
2022/01/08 23:21:45;;;;;;;10.43;6.70;;;;;;;3.76;nan;98827.59;10380771;28;20408;-87
2022/01/08 23:26:47;;;;;;;12.23;7.10;;;;;;;3.72;nan;98825.84;10407619;28;20037;-88
2022/01/08 23:31:49;;;;;;;10.23;6.18;;;;;;;3.71;nan;98813.06;10403843;28;20041;-85
2022/01/08 23:36:50;;;;;;;10.93;7.38;;;;;;;3.68;nan;98811.34;10395347;28;20038;-86
2022/01/08 23:41:52;;;;;;;9.85;6.20;;;;;;;3.70;nan;98807.09;10406040;28;20045;-86
2022/01/08 23:46:56;;;;;;;10.20;5.80;;;;;;;3.73;nan;98802.09;10393901;28;20576;-85
2022/01/08 23:52:01;;;;;;;13.45;7.45;;;;;;;3.72;nan;98800.38;10394275;28;20096;-85
2022/01/08 23:57:03;;;;;;;14.90;8.32;;;;;;;3.69;nan;98792.66;10416587;28;20042;-84
